createdAt,value
2019-02-24T00:00:28.594Z,19.81
2019-02-24T00:01:28.582Z,19.74
2019-02-24T00:02:28.564Z,19.74
2019-02-24T00:03:28.590Z,19.67
2019-02-24T00:04:28.542Z,19.70
2019-02-24T00:05:28.539Z,19.79
2019-02-24T00:06:28.522Z,19.74
2019-02-24T00:07:28.514Z,19.78
2019-02-24T00:08:28.508Z,19.79
2019-02-24T00:09:28.535Z,19.90
2019-02-24T00:10:28.482Z,19.94
2019-02-24T00:11:28.477Z,19.94
2019-02-24T00:12:28.471Z,19.90
2019-02-24T00:13:28.453Z,20.03
2019-02-24T00:14:28.467Z,20.03
2019-02-24T00:15:28.428Z,20.10
2019-02-24T00:16:28.427Z,20.11
2019-02-24T00:17:28.406Z,20.12
2019-02-24T00:18:28.404Z,20.11
2019-02-24T00:19:28.411Z,20.10
2019-02-24T00:20:28.380Z,20.08
2019-02-24T00:21:28.393Z,20.04
2019-02-24T00:22:28.356Z,20.00
2019-02-24T00:23:28.351Z,20.02
2019-02-24T00:24:28.336Z,19.99
2019-02-24T00:25:28.332Z,19.94
2019-02-24T00:26:28.311Z,19.90
2019-02-24T00:27:28.306Z,19.85
2019-02-24T00:28:28.290Z,19.75
2019-02-24T00:29:28.285Z,19.77
2019-02-24T00:30:28.286Z,19.62
2019-02-24T00:31:28.258Z,19.62
2019-02-24T00:32:28.249Z,19.62
2019-02-24T00:33:28.245Z,19.59
2019-02-24T00:34:28.230Z,19.55
2019-02-24T00:35:28.236Z,19.52
2019-02-24T00:36:28.211Z,19.55
2019-02-24T00:37:28.194Z,19.45
2019-02-24T00:38:28.194Z,19.39
2019-02-24T00:39:28.177Z,19.37
2019-02-24T00:40:28.182Z,19.32
2019-02-24T00:41:28.157Z,19.29
2019-02-24T00:42:28.142Z,19.26
2019-02-24T00:43:28.162Z,19.16
2019-02-24T00:44:28.117Z,19.15
2019-02-24T00:45:28.128Z,19.11
2019-02-24T00:46:28.098Z,19.05
2019-02-24T00:47:28.087Z,19.09
2019-02-24T00:48:28.087Z,19.07
2019-02-24T00:49:28.071Z,19.01
2019-02-24T00:50:28.083Z,18.91
2019-02-24T00:51:28.047Z,18.94
2019-02-24T00:52:28.036Z,18.89
2019-02-24T00:53:28.027Z,18.85
2019-02-24T00:54:28.019Z,18.86
2019-02-24T00:55:28.010Z,18.92
2019-02-24T00:56:28.021Z,18.79
2019-02-24T00:57:27.985Z,18.70
2019-02-24T00:58:27.970Z,18.68
2019-02-24T00:59:27.962Z,18.67
2019-02-24T01:00:27.957Z,18.66
2019-02-24T01:01:27.964Z,18.68
2019-02-24T01:02:27.929Z,18.60
2019-02-24T01:03:27.919Z,18.68
2019-02-24T01:04:27.906Z,18.61
2019-02-24T01:05:27.897Z,18.57
2019-02-24T01:06:27.904Z,18.55
2019-02-24T01:07:27.886Z,18.57
2019-02-24T01:08:27.866Z,18.45
2019-02-24T01:09:27.859Z,18.51
2019-02-24T01:10:27.874Z,18.48
2019-02-24T01:11:27.865Z,18.48
2019-02-24T01:12:27.833Z,18.34
2019-02-24T01:13:27.815Z,18.39
2019-02-24T01:14:27.801Z,18.42
2019-02-24T01:15:27.794Z,18.34
2019-02-24T01:16:27.786Z,18.31
2019-02-24T01:17:27.785Z,18.26
2019-02-24T01:18:27.758Z,18.18
2019-02-24T01:19:27.753Z,18.21
2019-02-24T01:20:27.735Z,18.24
2019-02-24T01:21:27.722Z,18.19
2019-02-24T01:22:27.744Z,18.24
2019-02-24T01:23:27.734Z,18.15
2019-02-24T01:24:27.692Z,18.18
2019-02-24T01:25:27.699Z,18.13
2019-02-24T01:26:27.669Z,18.21
2019-02-24T01:27:27.661Z,18.09
2019-02-24T01:28:27.657Z,18.12
2019-02-24T01:29:27.640Z,18.13
2019-02-24T01:30:27.625Z,18.15
2019-02-24T01:31:27.621Z,18.13
2019-02-24T01:32:27.643Z,18.15
2019-02-24T01:33:27.613Z,18.21
2019-02-24T01:34:27.578Z,18.26
2019-02-24T01:35:27.576Z,18.27
2019-02-24T01:36:27.559Z,18.27
2019-02-24T01:37:27.544Z,18.42
2019-02-24T01:38:27.561Z,18.42
2019-02-24T01:39:27.522Z,18.57
2019-02-24T01:40:27.518Z,18.64
2019-02-24T01:41:27.501Z,18.53
2019-02-24T01:42:27.494Z,18.64
2019-02-24T01:43:27.481Z,18.76
2019-02-24T01:44:27.481Z,18.74
2019-02-24T01:45:27.458Z,18.74
2019-02-24T01:46:27.452Z,18.73
2019-02-24T01:47:27.435Z,18.82
2019-02-24T01:48:27.423Z,18.83
2019-02-24T01:49:27.434Z,18.88
2019-02-24T01:50:27.412Z,18.88
2019-02-24T01:51:27.393Z,18.94
2019-02-24T01:52:27.384Z,18.83
2019-02-24T01:53:27.374Z,18.79
2019-02-24T01:54:27.374Z,18.78
2019-02-24T01:55:27.348Z,18.78
2019-02-24T01:56:27.340Z,18.67
2019-02-24T01:57:27.334Z,18.63
2019-02-24T01:58:34.978Z,18.58
2019-02-24T01:59:28.314Z,18.60
2019-02-24T02:00:27.291Z,18.53
2019-02-24T02:01:27.280Z,18.57
2019-02-24T02:02:27.272Z,18.48
2019-02-24T02:03:27.258Z,18.45
2019-02-24T02:04:27.261Z,18.37
2019-02-24T02:05:27.237Z,18.30
2019-02-24T02:06:27.228Z,18.24
2019-02-24T02:07:27.224Z,18.21
2019-02-24T02:08:27.204Z,18.21
2019-02-24T02:09:27.204Z,18.16
2019-02-24T02:10:27.178Z,18.19
2019-02-24T02:11:27.165Z,18.26
2019-02-24T02:12:27.168Z,18.16
2019-02-24T02:13:27.153Z,18.27
2019-02-24T02:14:27.178Z,18.18
2019-02-24T02:15:27.127Z,18.18
2019-02-24T02:16:27.157Z,18.18
2019-02-24T02:17:27.112Z,18.16
2019-02-24T02:18:27.098Z,18.23
2019-02-24T02:19:27.085Z,18.24
2019-02-24T02:20:27.088Z,18.18
2019-02-24T02:21:27.083Z,18.27
2019-02-24T02:22:27.068Z,18.37
2019-02-24T02:23:27.041Z,18.43
2019-02-24T02:24:27.030Z,18.57
2019-02-24T02:25:27.050Z,18.60
2019-02-24T02:26:27.005Z,18.64
2019-02-24T02:27:27.003Z,18.66
2019-02-24T02:28:26.985Z,18.74
2019-02-24T02:29:26.973Z,18.67
2019-02-24T02:30:27.001Z,18.92
2019-02-24T02:31:26.954Z,19.04
2019-02-24T02:32:26.940Z,19.11
2019-02-24T02:33:26.929Z,19.27
2019-02-24T02:34:26.927Z,19.30
2019-02-24T02:35:26.911Z,19.37
2019-02-24T02:36:26.912Z,19.52
2019-02-24T02:37:26.889Z,19.57
2019-02-24T02:38:26.883Z,19.62
2019-02-24T02:39:26.870Z,19.72
2019-02-24T02:40:26.869Z,19.70
2019-02-24T02:41:26.864Z,19.75
2019-02-24T02:42:26.827Z,19.78
2019-02-24T02:43:26.819Z,19.93
2019-02-24T02:44:26.818Z,19.97
2019-02-24T02:45:26.807Z,20.02
2019-02-24T02:46:26.797Z,20.08
2019-02-24T02:47:26.785Z,20.08
2019-02-24T02:48:26.768Z,20.17
2019-02-24T02:49:26.770Z,20.18
2019-02-24T02:50:26.748Z,20.24
2019-02-24T02:51:26.759Z,20.19
2019-02-24T02:52:26.734Z,20.12
2019-02-24T02:53:26.717Z,20.14
2019-02-24T02:54:26.701Z,20.08
2019-02-24T02:55:26.697Z,20.00
2019-02-24T02:56:26.693Z,19.97
2019-02-24T02:57:26.690Z,19.92
2019-02-24T02:58:26.666Z,19.90
2019-02-24T02:59:26.653Z,19.85
2019-02-24T03:00:26.656Z,19.90
2019-02-24T03:01:26.634Z,19.78
2019-02-24T03:02:26.634Z,19.84
2019-02-24T03:03:26.605Z,19.79
2019-02-24T03:04:26.598Z,19.74
2019-02-24T03:05:26.609Z,19.75
2019-02-24T03:06:26.576Z,19.71
2019-02-24T03:07:26.565Z,19.64
2019-02-24T03:08:26.551Z,19.64
2019-02-24T03:09:26.548Z,19.67
2019-02-24T03:10:26.546Z,19.62
2019-02-24T03:11:26.524Z,19.62
2019-02-24T03:12:26.519Z,19.47
2019-02-24T03:13:26.496Z,19.48
2019-02-24T03:14:26.490Z,19.49
2019-02-24T03:15:26.494Z,19.41
2019-02-24T03:16:26.469Z,19.44
2019-02-24T03:17:26.459Z,19.44
2019-02-24T03:18:26.447Z,19.41
2019-02-24T03:19:26.442Z,19.44
2019-02-24T03:20:26.443Z,19.39
2019-02-24T03:21:26.426Z,19.38
2019-02-24T03:22:26.406Z,19.38
2019-02-24T03:23:26.396Z,19.35
2019-02-24T03:24:26.393Z,19.26
2019-02-24T03:25:26.389Z,19.27
2019-02-24T03:26:26.366Z,19.27
2019-02-24T03:27:26.348Z,19.19
2019-02-24T03:28:26.344Z,19.09
2019-02-24T03:29:26.336Z,19.15
2019-02-24T03:30:26.350Z,19.05
2019-02-24T03:31:26.316Z,19.17
2019-02-24T03:32:26.302Z,19.12
2019-02-24T03:33:26.293Z,19.20
2019-02-24T03:34:26.280Z,19.16
2019-02-24T03:35:26.286Z,19.08
2019-02-24T03:36:26.256Z,19.08
2019-02-24T03:37:26.250Z,19.09
2019-02-24T03:38:26.235Z,19.16
2019-02-24T03:39:26.224Z,19.15
2019-02-24T03:40:26.225Z,19.09
2019-02-24T03:41:26.200Z,19.11
2019-02-24T03:42:26.190Z,19.11
2019-02-24T03:43:26.180Z,19.05
2019-02-24T03:44:26.166Z,19.07
2019-02-24T03:45:26.172Z,19.09
2019-02-24T03:46:26.145Z,19.15
2019-02-24T03:47:26.135Z,19.04
2019-02-24T03:48:26.126Z,19.12
2019-02-24T03:49:26.111Z,19.17
2019-02-24T03:50:26.119Z,19.05
2019-02-24T03:51:26.089Z,19.16
2019-02-24T03:52:26.087Z,19.22
2019-02-24T03:53:26.073Z,19.16
2019-02-24T03:54:26.058Z,19.07
2019-02-24T03:55:26.065Z,19.17
2019-02-24T03:56:26.043Z,19.04
2019-02-24T03:57:26.025Z,19.04
2019-02-24T03:58:26.025Z,19.01
2019-02-24T03:59:26.011Z,18.98
2019-02-24T04:00:26.069Z,18.85
2019-02-24T04:01:25.988Z,18.85
2019-02-24T04:02:25.972Z,18.82
2019-02-24T04:03:25.968Z,18.68
2019-02-24T04:04:25.956Z,18.66
2019-02-24T04:05:25.971Z,18.58
2019-02-24T04:06:25.947Z,18.66
2019-02-24T04:07:25.934Z,18.52
2019-02-24T04:08:25.909Z,18.43
2019-02-24T04:09:25.898Z,18.46
2019-02-24T04:10:25.886Z,18.45
2019-02-24T04:11:25.893Z,18.37
2019-02-24T04:12:25.864Z,18.34
2019-02-24T04:13:25.861Z,18.33
2019-02-24T04:14:25.841Z,18.27
2019-02-24T04:15:25.833Z,18.26
2019-02-24T04:16:25.841Z,18.18
2019-02-24T04:17:25.855Z,18.19
2019-02-24T04:18:25.799Z,18.23
2019-02-24T04:19:25.794Z,18.12
2019-02-24T04:20:25.786Z,18.06
2019-02-24T04:21:25.776Z,18.02
2019-02-24T04:22:25.755Z,17.97
2019-02-24T04:23:25.738Z,17.97
2019-02-24T04:24:25.738Z,17.97
2019-02-24T04:25:25.722Z,18.03
2019-02-24T04:26:25.745Z,18.11
2019-02-24T04:27:25.703Z,18.08
2019-02-24T04:28:25.686Z,18.19
2019-02-24T04:29:25.674Z,18.31
2019-02-24T04:30:25.666Z,18.53
2019-02-24T04:31:25.679Z,18.74
2019-02-24T04:32:25.651Z,19.16
2019-02-24T04:33:25.634Z,19.44
2019-02-24T04:34:25.628Z,19.72
2019-02-24T04:35:25.617Z,19.89
2019-02-24T04:36:25.616Z,20.19
2019-02-24T04:37:25.600Z,20.21
2019-02-24T04:38:25.584Z,20.52
2019-02-24T04:39:25.572Z,20.71
2019-02-24T04:40:25.555Z,20.83
2019-02-24T04:41:25.555Z,21.03
2019-02-24T04:42:25.538Z,21.14
2019-02-24T04:43:25.540Z,21.23
2019-02-24T04:44:25.514Z,21.37
2019-02-24T04:45:25.499Z,21.45
2019-02-24T04:46:25.507Z,21.50
2019-02-24T04:47:25.480Z,21.47
2019-02-24T04:48:25.475Z,21.51
2019-02-24T04:49:25.460Z,21.59
2019-02-24T04:50:25.451Z,21.44
2019-02-24T04:51:25.450Z,21.45
2019-02-24T04:52:25.428Z,21.45
2019-02-24T04:53:25.420Z,21.40
2019-02-24T04:54:25.409Z,21.43
2019-02-24T04:55:25.394Z,21.33
2019-02-24T04:56:25.399Z,21.33
2019-02-24T04:57:25.372Z,21.37
2019-02-24T04:58:25.364Z,21.29
2019-02-24T04:59:34.578Z,21.15
2019-02-24T05:00:26.342Z,21.15
2019-02-24T05:01:25.348Z,21.03
2019-02-24T05:02:25.326Z,20.93
2019-02-24T05:03:25.308Z,20.98
2019-02-24T05:04:25.301Z,20.85
2019-02-24T05:05:25.288Z,20.83
2019-02-24T05:06:25.295Z,20.71
2019-02-24T05:07:25.268Z,20.58
2019-02-24T05:08:25.258Z,20.55
2019-02-24T05:09:25.247Z,20.42
2019-02-24T05:10:25.241Z,20.37
2019-02-24T05:11:25.242Z,20.34
2019-02-24T05:12:25.217Z,20.21
2019-02-24T05:13:25.202Z,20.30
2019-02-24T05:14:25.195Z,20.18
2019-02-24T05:15:25.186Z,20.18
2019-02-24T05:16:25.186Z,20.08
2019-02-24T05:17:25.237Z,20.08
2019-02-24T05:18:25.151Z,19.94
2019-02-24T05:19:25.162Z,19.93
2019-02-24T05:20:25.132Z,19.90
2019-02-24T05:21:25.140Z,19.79
2019-02-24T05:22:25.115Z,19.74
2019-02-24T05:23:25.109Z,19.71
2019-02-24T05:24:25.086Z,19.62
2019-02-24T05:25:25.077Z,19.55
2019-02-24T05:26:25.096Z,19.48
2019-02-24T05:27:25.056Z,19.45
2019-02-24T05:28:25.057Z,19.41
2019-02-24T05:29:25.039Z,19.34
2019-02-24T05:30:25.026Z,19.26
2019-02-24T05:31:25.033Z,19.22
2019-02-24T05:32:25.006Z,19.08
2019-02-24T05:33:24.993Z,19.09
2019-02-24T05:34:24.992Z,19.07
2019-02-24T05:35:24.974Z,19.01
2019-02-24T05:36:24.973Z,18.88
2019-02-24T05:37:24.954Z,18.94
2019-02-24T05:38:25.062Z,18.79
2019-02-24T05:39:24.934Z,18.85
2019-02-24T05:40:24.928Z,18.79
2019-02-24T05:41:24.927Z,18.71
2019-02-24T05:42:24.896Z,18.74
2019-02-24T05:43:24.887Z,18.66
2019-02-24T05:44:24.880Z,18.66
2019-02-24T05:45:24.873Z,18.60
2019-02-24T05:46:24.875Z,18.58
2019-02-24T05:47:24.852Z,18.52
2019-02-24T05:48:24.835Z,18.57
2019-02-24T05:49:24.825Z,18.55
2019-02-24T05:50:24.817Z,18.48
2019-02-24T05:51:24.823Z,18.41
2019-02-24T05:52:24.794Z,18.37
2019-02-24T05:53:24.779Z,18.39
2019-02-24T05:54:24.778Z,18.41
2019-02-24T05:55:24.755Z,18.31
2019-02-24T05:56:24.763Z,18.26
2019-02-24T05:57:24.736Z,18.23
2019-02-24T05:58:24.722Z,18.28
2019-02-24T05:59:24.716Z,18.23
2019-02-24T06:00:24.706Z,18.23
2019-02-24T06:01:24.718Z,18.26
2019-02-24T06:02:24.686Z,18.27
2019-02-24T06:03:24.673Z,18.19
2019-02-24T06:04:24.657Z,18.16
2019-02-24T06:05:24.659Z,18.24
2019-02-24T06:06:24.636Z,18.39
2019-02-24T06:07:24.644Z,18.58
2019-02-24T06:08:24.628Z,18.66
2019-02-24T06:09:24.603Z,18.68
2019-02-24T06:10:24.609Z,18.86
2019-02-24T06:11:24.583Z,18.88
2019-02-24T06:12:24.591Z,18.88
2019-02-24T06:13:24.570Z,18.91
2019-02-24T06:14:24.556Z,19.04
2019-02-24T06:15:24.539Z,19.12
2019-02-24T06:16:24.547Z,19.11
2019-02-24T06:17:24.532Z,19.23
2019-02-24T06:18:24.505Z,19.30
2019-02-24T06:19:24.505Z,19.37
2019-02-24T06:20:24.487Z,19.48
2019-02-24T06:21:24.477Z,19.42
2019-02-24T06:22:24.487Z,19.52
2019-02-24T06:23:24.452Z,19.37
2019-02-24T06:24:24.444Z,19.30
2019-02-24T06:25:24.432Z,19.27
2019-02-24T06:26:24.415Z,19.30
2019-02-24T06:27:24.428Z,19.15
2019-02-24T06:28:24.411Z,19.08
2019-02-24T06:29:24.389Z,19.17
2019-02-24T06:30:24.375Z,19.11
2019-02-24T06:31:24.369Z,19.05
2019-02-24T06:32:24.466Z,18.98
2019-02-24T06:33:24.341Z,18.98
2019-02-24T06:34:24.333Z,18.78
2019-02-24T06:35:24.324Z,18.82
2019-02-24T06:36:24.316Z,18.81
2019-02-24T06:37:24.332Z,18.73
2019-02-24T06:38:24.292Z,18.74
2019-02-24T06:39:24.283Z,18.61
2019-02-24T06:40:24.273Z,18.66
2019-02-24T06:41:24.255Z,18.51
2019-02-24T06:42:24.264Z,18.58
2019-02-24T06:43:24.238Z,18.57
2019-02-24T06:44:24.225Z,18.64
2019-02-24T06:45:24.220Z,18.58
2019-02-24T06:46:24.200Z,18.61
2019-02-24T06:47:24.213Z,18.55
2019-02-24T06:48:24.181Z,18.51
2019-02-24T06:49:24.176Z,18.49
2019-02-24T06:50:24.160Z,18.48
2019-02-24T06:51:24.148Z,18.55
2019-02-24T06:52:24.154Z,18.48
2019-02-24T06:53:24.124Z,18.53
2019-02-24T06:54:24.117Z,18.49
2019-02-24T06:55:24.108Z,18.52
2019-02-24T06:56:24.093Z,18.45
2019-02-24T06:57:24.094Z,18.51
2019-02-24T06:58:24.072Z,18.45
2019-02-24T06:59:24.090Z,18.60
2019-02-24T07:00:24.048Z,18.52
2019-02-24T07:01:24.038Z,18.55
2019-02-24T07:02:24.191Z,18.58
2019-02-24T07:03:24.014Z,18.55
2019-02-24T07:04:24.009Z,18.61
2019-02-24T07:05:23.996Z,18.53
2019-02-24T07:06:23.987Z,18.60
2019-02-24T07:07:23.985Z,18.60
2019-02-24T07:08:23.959Z,18.57
2019-02-24T07:09:23.955Z,18.53
2019-02-24T07:10:23.937Z,18.60
2019-02-24T07:11:23.929Z,18.60
2019-02-24T07:12:23.931Z,18.63
2019-02-24T07:13:23.904Z,18.55
2019-02-24T07:14:23.892Z,18.51
2019-02-24T07:15:23.879Z,18.52
2019-02-24T07:16:23.874Z,18.45
2019-02-24T07:17:23.885Z,18.57
2019-02-24T07:18:23.855Z,18.49
2019-02-24T07:19:23.845Z,18.53
2019-02-24T07:20:23.826Z,18.42
2019-02-24T07:21:23.822Z,18.45
2019-02-24T07:22:23.867Z,18.53
2019-02-24T07:23:23.803Z,18.45
2019-02-24T07:24:23.785Z,18.46
2019-02-24T07:25:23.776Z,18.43
2019-02-24T07:26:23.762Z,18.45
2019-02-24T07:27:23.771Z,18.45
2019-02-24T07:28:23.739Z,18.39
2019-02-24T07:29:23.731Z,18.53
2019-02-24T07:30:23.929Z,18.39
2019-02-24T07:31:23.710Z,18.41
2019-02-24T07:32:23.726Z,18.34
2019-02-24T07:33:23.700Z,18.37
2019-02-24T07:34:23.684Z,18.33
2019-02-24T07:35:23.670Z,18.30
2019-02-24T07:36:23.664Z,18.34
2019-02-24T07:37:23.646Z,18.33
2019-02-24T07:38:23.660Z,18.31
2019-02-24T07:39:23.633Z,18.37
2019-02-24T07:40:23.620Z,18.37
2019-02-24T07:41:23.606Z,18.37
2019-02-24T07:42:23.597Z,18.37
2019-02-24T07:43:23.616Z,18.37
2019-02-24T07:44:23.573Z,18.39
2019-02-24T07:45:23.564Z,18.26
2019-02-24T07:46:23.567Z,18.21
2019-02-24T07:47:23.547Z,18.26
2019-02-24T07:48:23.555Z,18.21
2019-02-24T07:49:23.524Z,18.19
2019-02-24T07:50:23.516Z,18.19
2019-02-24T07:51:23.537Z,18.24
2019-02-24T07:52:23.492Z,18.19
2019-02-24T07:53:23.499Z,18.19
2019-02-24T07:54:23.480Z,18.27
2019-02-24T07:55:23.467Z,18.23
2019-02-24T07:56:23.452Z,18.26
2019-02-24T07:57:23.438Z,18.18
2019-02-24T07:58:23.459Z,18.27
2019-02-24T07:59:23.442Z,18.21
2019-02-24T08:00:31.700Z,18.16
2019-02-24T08:01:24.399Z,18.09
2019-02-24T08:02:23.416Z,18.16
2019-02-24T08:03:23.529Z,18.16
2019-02-24T08:04:23.408Z,18.16
2019-02-24T08:05:23.357Z,18.09
2019-02-24T08:06:23.362Z,18.16
2019-02-24T08:07:23.346Z,18.11
2019-02-24T08:08:23.341Z,18.09
2019-02-24T08:09:23.314Z,18.23
2019-02-24T08:10:23.310Z,18.13
2019-02-24T08:11:23.301Z,18.11
2019-02-24T08:12:23.287Z,18.18
2019-02-24T08:13:23.285Z,18.11
2019-02-24T08:14:23.263Z,18.05
2019-02-24T08:15:23.253Z,18.11
2019-02-24T08:16:23.247Z,18.11
2019-02-24T08:17:23.232Z,18.03
2019-02-24T08:18:23.239Z,18.02
2019-02-24T08:19:23.214Z,17.97
2019-02-24T08:20:23.204Z,17.91
2019-02-24T08:21:23.197Z,17.95
2019-02-24T08:22:23.184Z,17.95
2019-02-24T08:23:23.185Z,17.97
2019-02-24T08:24:23.165Z,17.95
2019-02-24T08:25:23.152Z,17.98
2019-02-24T08:26:23.140Z,17.93
2019-02-24T08:27:23.139Z,17.95
2019-02-24T08:28:23.141Z,18.00
2019-02-24T08:29:23.113Z,17.97
2019-02-24T08:30:23.119Z,17.93
2019-02-24T08:31:23.091Z,18.02
2019-02-24T08:32:23.085Z,17.91
2019-02-24T08:33:23.067Z,17.84
2019-02-24T08:34:23.055Z,17.88
2019-02-24T08:35:23.064Z,17.91
2019-02-24T08:36:23.043Z,17.84
2019-02-24T08:37:23.027Z,17.90
2019-02-24T08:38:23.026Z,17.87
2019-02-24T08:39:23.007Z,17.93
2019-02-24T08:40:23.009Z,17.95
2019-02-24T08:41:22.990Z,17.93
2019-02-24T08:42:22.974Z,17.97
2019-02-24T08:43:22.967Z,18.08
2019-02-24T08:44:22.954Z,18.19
2019-02-24T08:45:22.982Z,18.41
2019-02-24T08:46:22.944Z,18.57
2019-02-24T08:47:22.920Z,18.66
2019-02-24T08:48:22.906Z,19.07
2019-02-24T08:49:22.903Z,19.45
2019-02-24T08:50:22.906Z,19.75
2019-02-24T08:51:23.457Z,19.94
2019-02-24T08:52:22.883Z,19.97
2019-02-24T08:53:22.880Z,20.17
2019-02-24T08:54:22.847Z,20.24
2019-02-24T08:55:22.873Z,20.48
2019-02-24T08:56:22.824Z,20.68
2019-02-24T08:57:22.814Z,20.82
2019-02-24T08:58:22.814Z,20.88
2019-02-24T08:59:22.796Z,20.90
2019-02-24T09:00:22.799Z,20.95
2019-02-24T09:01:22.778Z,20.96
2019-02-24T09:02:22.779Z,20.82
2019-02-24T09:03:22.754Z,20.74
2019-02-24T09:04:22.743Z,20.85
2019-02-24T09:05:22.771Z,20.80
2019-02-24T09:06:22.732Z,20.73
2019-02-24T09:07:22.711Z,20.74
2019-02-24T09:08:22.702Z,20.60
2019-02-24T09:09:22.685Z,20.42
2019-02-24T09:10:22.687Z,20.39
2019-02-24T09:11:22.668Z,20.18
2019-02-24T09:12:22.673Z,20.15
2019-02-24T09:13:22.655Z,20.07
2019-02-24T09:14:22.655Z,20.04
2019-02-24T09:15:22.670Z,20.07
2019-02-24T09:16:22.615Z,20.02
2019-02-24T09:17:22.607Z,20.08
2019-02-24T09:18:22.599Z,20.04
2019-02-24T09:19:22.597Z,19.97
2019-02-24T09:20:22.571Z,19.89
2019-02-24T09:21:22.581Z,19.96
2019-02-24T09:22:22.552Z,19.85
2019-02-24T09:23:22.548Z,19.79
2019-02-24T09:24:22.530Z,19.74
2019-02-24T09:25:22.518Z,19.75
2019-02-24T09:26:22.516Z,19.67
2019-02-24T09:27:22.502Z,19.60
2019-02-24T09:28:22.490Z,19.45
2019-02-24T09:29:22.474Z,19.45
2019-02-24T09:30:22.497Z,19.41
2019-02-24T09:31:22.521Z,19.27
2019-02-24T09:32:22.443Z,19.34
2019-02-24T09:33:22.437Z,19.24
2019-02-24T09:34:22.427Z,19.26
2019-02-24T09:35:22.414Z,19.20
2019-02-24T09:36:22.432Z,19.09
2019-02-24T09:37:22.401Z,19.09
2019-02-24T09:38:22.387Z,19.11
2019-02-24T09:39:22.371Z,19.09
2019-02-24T09:40:22.364Z,19.07
2019-02-24T09:41:22.362Z,19.05
2019-02-24T09:42:22.339Z,19.09
2019-02-24T09:43:22.331Z,19.05
2019-02-24T09:44:22.317Z,19.01
2019-02-24T09:45:22.311Z,18.92
2019-02-24T09:46:22.313Z,19.04
2019-02-24T09:47:22.283Z,19.05
2019-02-24T09:48:22.279Z,18.88
2019-02-24T09:49:22.267Z,18.85
2019-02-24T09:50:22.252Z,18.82
2019-02-24T09:51:22.267Z,18.91
2019-02-24T09:52:22.248Z,18.89
2019-02-24T09:53:22.229Z,18.83
2019-02-24T09:54:22.211Z,18.79
2019-02-24T09:55:22.243Z,18.83
2019-02-24T09:56:22.210Z,18.73
2019-02-24T09:57:22.205Z,18.68
2019-02-24T09:58:22.174Z,18.66
2019-02-24T09:59:22.157Z,18.76
2019-02-24T10:00:22.217Z,18.66
2019-02-24T10:01:22.156Z,18.64
2019-02-24T10:02:22.127Z,18.63
2019-02-24T10:03:22.122Z,18.67
2019-02-24T10:04:22.102Z,18.64
2019-02-24T10:05:22.101Z,18.64
2019-02-24T10:06:22.101Z,18.70
2019-02-24T10:07:22.076Z,18.52
2019-02-24T10:08:22.056Z,18.57
2019-02-24T10:09:22.055Z,18.61
2019-02-24T10:10:22.035Z,18.66
2019-02-24T10:11:22.048Z,18.63
2019-02-24T10:12:22.015Z,18.63
2019-02-24T10:13:22.131Z,18.58
2019-02-24T10:14:21.988Z,18.63
2019-02-24T10:15:22.000Z,18.55
2019-02-24T10:16:21.964Z,18.55
2019-02-24T10:17:21.972Z,18.52
2019-02-24T10:18:21.954Z,18.48
2019-02-24T10:19:21.939Z,18.48
2019-02-24T10:20:21.930Z,18.42
2019-02-24T10:21:21.916Z,18.43
2019-02-24T10:22:21.949Z,18.48
2019-02-24T10:23:21.893Z,18.34
2019-02-24T10:24:21.880Z,18.39
2019-02-24T10:25:21.871Z,18.41
2019-02-24T10:26:21.864Z,18.30
2019-02-24T10:27:21.897Z,18.26
2019-02-24T10:28:21.843Z,18.28
2019-02-24T10:29:21.824Z,18.26
2019-02-24T10:30:21.833Z,18.24
2019-02-24T10:31:21.809Z,18.21
2019-02-24T10:32:21.824Z,18.19
2019-02-24T10:33:21.781Z,18.21
2019-02-24T10:34:21.779Z,18.16
2019-02-24T10:35:21.764Z,18.23
2019-02-24T10:36:21.755Z,18.09
2019-02-24T10:37:21.763Z,18.13
2019-02-24T10:38:21.739Z,18.13
2019-02-24T10:39:29.538Z,18.27
2019-02-24T10:40:22.709Z,18.61
2019-02-24T10:41:21.700Z,18.86
2019-02-24T10:42:21.707Z,19.26
2019-02-24T10:43:21.680Z,19.59
2019-02-24T10:44:21.672Z,20.08
2019-02-24T10:45:21.657Z,20.34
2019-02-24T10:46:21.665Z,20.86
2019-02-24T10:47:21.659Z,21.11
2019-02-24T10:48:21.626Z,21.53
2019-02-24T10:49:21.614Z,21.78
2019-02-24T10:50:21.607Z,22.04
2019-02-24T10:51:21.591Z,22.30
2019-02-24T10:52:21.601Z,22.55
2019-02-24T10:53:21.576Z,22.61
2019-02-24T10:54:21.566Z,22.86
2019-02-24T10:55:21.552Z,22.96
2019-02-24T10:56:21.537Z,23.10
2019-02-24T10:57:21.543Z,23.13
2019-02-24T10:58:21.519Z,23.25
2019-02-24T10:59:21.532Z,23.13
2019-02-24T11:00:21.497Z,23.17
2019-02-24T11:01:29.271Z,23.28
2019-02-24T11:02:22.498Z,23.20
2019-02-24T11:03:21.466Z,23.21
2019-02-24T11:04:21.458Z,23.13
2019-02-24T11:05:21.465Z,23.17
2019-02-24T11:06:21.445Z,23.11
2019-02-24T11:07:21.445Z,23.07
2019-02-24T11:08:21.415Z,23.06
2019-02-24T11:09:21.406Z,22.98
2019-02-24T11:10:21.439Z,22.93
2019-02-24T11:11:21.376Z,22.96
2019-02-24T11:12:21.391Z,22.93
2019-02-24T11:13:21.364Z,22.80
2019-02-24T11:14:21.351Z,22.77
2019-02-24T11:15:21.345Z,22.70
2019-02-24T11:16:21.324Z,22.74
2019-02-24T11:17:21.339Z,22.44
2019-02-24T11:18:21.315Z,22.33
2019-02-24T11:19:21.307Z,22.30
2019-02-24T11:20:21.285Z,22.31
2019-02-24T11:21:21.275Z,22.21
2019-02-24T11:22:21.286Z,22.07
2019-02-24T11:23:21.262Z,21.96
2019-02-24T11:24:21.247Z,21.85
2019-02-24T11:25:21.232Z,21.77
2019-02-24T11:26:21.231Z,21.65
2019-02-24T11:27:21.227Z,21.60
2019-02-24T11:28:21.207Z,21.54
2019-02-24T11:29:21.187Z,21.54
2019-02-24T11:30:21.177Z,21.51
2019-02-24T11:31:21.178Z,21.32
2019-02-24T11:32:21.171Z,21.23
2019-02-24T11:33:21.147Z,21.10
2019-02-24T11:34:21.129Z,21.00
2019-02-24T11:35:21.129Z,20.85
2019-02-24T11:36:21.119Z,20.85
2019-02-24T11:37:21.123Z,20.80
2019-02-24T11:38:21.095Z,20.70
2019-02-24T11:39:21.102Z,20.60
2019-02-24T11:40:21.075Z,20.55
2019-02-24T11:41:21.070Z,20.49
2019-02-24T11:42:21.069Z,20.32
2019-02-24T11:43:21.043Z,20.34
2019-02-24T11:44:21.031Z,20.27
2019-02-24T11:45:21.022Z,20.24
2019-02-24T11:46:21.014Z,20.15
2019-02-24T11:47:21.029Z,20.17
2019-02-24T11:48:20.992Z,20.14
2019-02-24T11:49:20.979Z,20.04
2019-02-24T11:50:20.968Z,20.10
2019-02-24T11:51:20.958Z,20.08
2019-02-24T11:52:20.949Z,20.04
2019-02-24T11:53:20.949Z,19.99
2019-02-24T11:54:20.928Z,19.94
2019-02-24T11:55:20.914Z,19.94
2019-02-24T11:56:20.911Z,19.94
2019-02-24T11:57:20.895Z,19.87
2019-02-24T11:58:20.900Z,19.87
2019-02-24T11:59:20.874Z,19.81
2019-02-24T12:00:20.862Z,19.78
2019-02-24T12:01:20.856Z,19.75
2019-02-24T12:02:20.843Z,19.77
2019-02-24T12:03:20.849Z,19.66
2019-02-24T12:04:20.837Z,19.71
2019-02-24T12:05:20.821Z,19.70
2019-02-24T12:06:20.798Z,19.78
2019-02-24T12:07:20.792Z,19.70
2019-02-24T12:08:20.797Z,19.66
2019-02-24T12:09:20.765Z,19.62
2019-02-24T12:10:20.753Z,19.66
2019-02-24T12:11:20.745Z,19.57
2019-02-24T12:12:20.737Z,19.60
2019-02-24T12:13:20.739Z,19.49
2019-02-24T12:14:20.716Z,19.57
2019-02-24T12:15:20.700Z,19.59
2019-02-24T12:16:20.702Z,19.48
2019-02-24T12:17:20.689Z,19.45
2019-02-24T12:18:20.683Z,19.44
2019-02-24T12:19:20.665Z,19.41
2019-02-24T12:20:20.654Z,19.53
2019-02-24T12:21:20.648Z,19.48
2019-02-24T12:22:20.636Z,19.48
2019-02-24T12:23:20.654Z,19.47
2019-02-24T12:24:20.608Z,19.49
2019-02-24T12:25:20.603Z,19.52
2019-02-24T12:26:20.585Z,19.52
2019-02-24T12:27:20.588Z,19.57
2019-02-24T12:28:20.583Z,19.55
2019-02-24T12:29:20.565Z,19.62
2019-02-24T12:30:20.547Z,19.63
2019-02-24T12:31:20.535Z,19.85
2019-02-24T12:32:20.520Z,19.87
2019-02-24T12:33:20.530Z,19.97
2019-02-24T12:34:20.502Z,20.18
2019-02-24T12:35:20.492Z,20.18
2019-02-24T12:36:20.483Z,20.26
2019-02-24T12:37:20.471Z,20.22
2019-02-24T12:38:20.487Z,20.33
2019-02-24T12:39:20.481Z,20.33
2019-02-24T12:40:20.438Z,20.37
2019-02-24T12:41:20.430Z,20.26
2019-02-24T12:42:20.420Z,20.22
2019-02-24T12:43:20.423Z,20.11
2019-02-24T12:44:20.399Z,20.14
2019-02-24T12:45:20.388Z,20.11
2019-02-24T12:46:20.376Z,20.11
2019-02-24T12:47:20.375Z,20.10
2019-02-24T12:48:20.384Z,19.94
2019-02-24T12:49:20.348Z,19.89
2019-02-24T12:50:20.338Z,19.89
2019-02-24T12:51:20.352Z,19.79
2019-02-24T12:52:20.773Z,19.90